sensor_id;sensor_type;location;lat;lon;timestamp;P1;durP1;ratioP1;P2;durP2;ratioP2
33714;SDS011;20043;50.998;4.754;2023-02-26T00:01:31;23.90;;;7.80;;
33714;SDS011;20043;50.998;4.754;2023-02-26T00:03:59;22.00;;;6.68;;
33714;SDS011;20043;50.998;4.754;2023-02-26T00:06:26;24.80;;;6.28;;
33714;SDS011;20043;50.998;4.754;2023-02-26T00:08:53;20.38;;;7.38;;
33714;SDS011;20043;50.998;4.754;2023-02-26T00:11:19;24.38;;;7.03;;
33714;SDS011;20043;50.998;4.754;2023-02-26T00:13:45;23.15;;;6.85;;
33714;SDS011;20043;50.998;4.754;2023-02-26T00:19:00;17.60;;;6.93;;
33714;SDS011;20043;50.998;4.754;2023-02-26T00:21:28;18.48;;;6.28;;
33714;SDS011;20043;50.998;4.754;2023-02-26T00:23:55;17.45;;;6.15;;
33714;SDS011;20043;50.998;4.754;2023-02-26T00:26:22;20.90;;;6.70;;
33714;SDS011;20043;50.998;4.754;2023-02-26T00:28:50;23.05;;;6.18;;
33714;SDS011;20043;50.998;4.754;2023-02-26T00:31:17;23.58;;;6.43;;
33714;SDS011;20043;50.998;4.754;2023-02-26T00:33:44;22.05;;;6.32;;
33714;SDS011;20043;50.998;4.754;2023-02-26T00:39:05;16.80;;;6.28;;
33714;SDS011;20043;50.998;4.754;2023-02-26T00:41:36;15.70;;;6.60;;
33714;SDS011;20043;50.998;4.754;2023-02-26T00:44:03;13.88;;;5.75;;
33714;SDS011;20043;50.998;4.754;2023-02-26T00:51:52;16.00;;;6.07;;
33714;SDS011;20043;50.998;4.754;2023-02-26T00:54:21;21.42;;;7.45;;
33714;SDS011;20043;50.998;4.754;2023-02-26T00:56:49;19.92;;;6.82;;
33714;SDS011;20043;50.998;4.754;2023-02-26T00:59:16;19.33;;;6.82;;
33714;SDS011;20043;50.998;4.754;2023-02-26T01:01:43;29.13;;;7.53;;
33714;SDS011;20043;50.998;4.754;2023-02-26T01:04:09;28.30;;;7.43;;
33714;SDS011;20043;50.998;4.754;2023-02-26T01:06:37;16.52;;;6.28;;
33714;SDS011;20043;50.998;4.754;2023-02-26T01:09:12;18.27;;;6.07;;
33714;SDS011;20043;50.998;4.754;2023-02-26T01:11:49;22.92;;;7.05;;
33714;SDS011;20043;50.998;4.754;2023-02-26T01:14:15;22.40;;;7.03;;
33714;SDS011;20043;50.998;4.754;2023-02-26T01:17:00;25.92;;;7.07;;
33714;SDS011;20043;50.998;4.754;2023-02-26T01:22:21;18.85;;;7.10;;
33714;SDS011;20043;50.998;4.754;2023-02-26T01:24:58;17.67;;;7.20;;
33714;SDS011;20043;50.998;4.754;2023-02-26T01:27:27;23.80;;;7.45;;
33714;SDS011;20043;50.998;4.754;2023-02-26T01:29:53;19.50;;;7.55;;
33714;SDS011;20043;50.998;4.754;2023-02-26T01:37:46;20.13;;;6.85;;
33714;SDS011;20043;50.998;4.754;2023-02-26T01:43:29;15.77;;;6.25;;
33714;SDS011;20043;50.998;4.754;2023-02-26T01:46:15;20.58;;;6.03;;
33714;SDS011;20043;50.998;4.754;2023-02-26T01:48:50;19.08;;;7.28;;
33714;SDS011;20043;50.998;4.754;2023-02-26T01:54:08;16.98;;;7.20;;
33714;SDS011;20043;50.998;4.754;2023-02-26T01:56:34;19.10;;;6.80;;
33714;SDS011;20043;50.998;4.754;2023-02-26T01:59:02;17.92;;;6.03;;
33714;SDS011;20043;50.998;4.754;2023-02-26T02:01:31;15.20;;;5.75;;
33714;SDS011;20043;50.998;4.754;2023-02-26T02:03:57;15.27;;;5.50;;
33714;SDS011;20043;50.998;4.754;2023-02-26T02:06:24;16.92;;;5.55;;
33714;SDS011;20043;50.998;4.754;2023-02-26T02:08:51;17.90;;;5.40;;
33714;SDS011;20043;50.998;4.754;2023-02-26T02:11:17;25.55;;;5.57;;
33714;SDS011;20043;50.998;4.754;2023-02-26T02:19:13;19.52;;;4.82;;
33714;SDS011;20043;50.998;4.754;2023-02-26T02:25:19;14.60;;;4.20;;
33714;SDS011;20043;50.998;4.754;2023-02-26T02:28:32;22.25;;;4.53;;
33714;SDS011;20043;50.998;4.754;2023-02-26T02:31:14;18.15;;;4.68;;
33714;SDS011;20043;50.998;4.754;2023-02-26T02:36:33;11.85;;;4.25;;
33714;SDS011;20043;50.998;4.754;2023-02-26T02:39:02;24.05;;;5.05;;
33714;SDS011;20043;50.998;4.754;2023-02-26T02:41:35;14.75;;;4.68;;
33714;SDS011;20043;50.998;4.754;2023-02-26T02:44:09;14.40;;;4.25;;
33714;SDS011;20043;50.998;4.754;2023-02-26T02:46:39;11.27;;;3.90;;
33714;SDS011;20043;50.998;4.754;2023-02-26T02:49:15;17.23;;;5.22;;
33714;SDS011;20043;50.998;4.754;2023-02-26T02:51:48;14.27;;;4.38;;
33714;SDS011;20043;50.998;4.754;2023-02-26T02:54:23;30.05;;;5.32;;
33714;SDS011;20043;50.998;4.754;2023-02-26T03:02:13;13.88;;;4.25;;
33714;SDS011;20043;50.998;4.754;2023-02-26T03:04:45;15.38;;;4.15;;
33714;SDS011;20043;50.998;4.754;2023-02-26T03:07:12;13.55;;;4.13;;
33714;SDS011;20043;50.998;4.754;2023-02-26T03:09:38;12.93;;;4.20;;
33714;SDS011;20043;50.998;4.754;2023-02-26T03:12:04;17.83;;;4.70;;
33714;SDS011;20043;50.998;4.754;2023-02-26T03:14:30;23.05;;;4.75;;
33714;SDS011;20043;50.998;4.754;2023-02-26T03:20:05;20.50;;;4.70;;
33714;SDS011;20043;50.998;4.754;2023-02-26T03:33:31;13.40;;;4.13;;
33714;SDS011;20043;50.998;4.754;2023-02-26T03:41:27;15.10;;;4.57;;
33714;SDS011;20043;50.998;4.754;2023-02-26T03:44:00;12.63;;;4.13;;
33714;SDS011;20043;50.998;4.754;2023-02-26T03:46:31;10.38;;;3.38;;
33714;SDS011;20043;50.998;4.754;2023-02-26T03:49:03;13.20;;;3.78;;
33714;SDS011;20043;50.998;4.754;2023-02-26T03:51:33;15.20;;;3.72;;
33714;SDS011;20043;50.998;4.754;2023-02-26T03:54:35;15.52;;;3.80;;
33714;SDS011;20043;50.998;4.754;2023-02-26T03:57:01;14.88;;;3.95;;
33714;SDS011;20043;50.998;4.754;2023-02-26T03:59:27;15.65;;;3.67;;
33714;SDS011;20043;50.998;4.754;2023-02-26T04:01:55;7.07;;;3.13;;
33714;SDS011;20043;50.998;4.754;2023-02-26T04:04:24;12.10;;;3.30;;
33714;SDS011;20043;50.998;4.754;2023-02-26T04:06:54;15.88;;;2.92;;
33714;SDS011;20043;50.998;4.754;2023-02-26T04:09:20;10.02;;;2.88;;
33714;SDS011;20043;50.998;4.754;2023-02-26T04:11:47;10.98;;;3.08;;
33714;SDS011;20043;50.998;4.754;2023-02-26T04:14:14;22.83;;;3.20;;
33714;SDS011;20043;50.998;4.754;2023-02-26T04:16:40;11.32;;;2.92;;
33714;SDS011;20043;50.998;4.754;2023-02-26T04:19:07;13.45;;;2.95;;
33714;SDS011;20043;50.998;4.754;2023-02-26T04:21:32;11.40;;;2.83;;
33714;SDS011;20043;50.998;4.754;2023-02-26T04:23:58;11.48;;;2.60;;
33714;SDS011;20043;50.998;4.754;2023-02-26T04:26:23;13.93;;;3.25;;
33714;SDS011;20043;50.998;4.754;2023-02-26T04:28:49;7.68;;;2.50;;
33714;SDS011;20043;50.998;4.754;2023-02-26T04:31:14;17.23;;;3.42;;
33714;SDS011;20043;50.998;4.754;2023-02-26T04:33:40;10.68;;;2.83;;
33714;SDS011;20043;50.998;4.754;2023-02-26T04:36:06;11.35;;;2.40;;
33714;SDS011;20043;50.998;4.754;2023-02-26T04:38:32;10.38;;;2.58;;
33714;SDS011;20043;50.998;4.754;2023-02-26T04:40:57;9.50;;;2.08;;
33714;SDS011;20043;50.998;4.754;2023-02-26T04:43:23;9.85;;;2.45;;
33714;SDS011;20043;50.998;4.754;2023-02-26T04:45:48;10.82;;;3.50;;
33714;SDS011;20043;50.998;4.754;2023-02-26T04:48:14;15.15;;;2.85;;
33714;SDS011;20043;50.998;4.754;2023-02-26T04:50:40;12.38;;;2.65;;
33714;SDS011;20043;50.998;4.754;2023-02-26T04:53:06;8.43;;;2.20;;
33714;SDS011;20043;50.998;4.754;2023-02-26T04:55:32;9.90;;;2.42;;
33714;SDS011;20043;50.998;4.754;2023-02-26T04:57:59;15.00;;;2.80;;
33714;SDS011;20043;50.998;4.754;2023-02-26T05:00:24;10.85;;;2.47;;
33714;SDS011;20043;50.998;4.754;2023-02-26T05:02:50;9.77;;;2.13;;
33714;SDS011;20043;50.998;4.754;2023-02-26T05:05:16;8.60;;;2.38;;
33714;SDS011;20043;50.998;4.754;2023-02-26T05:07:41;12.63;;;2.45;;
33714;SDS011;20043;50.998;4.754;2023-02-26T05:10:07;12.30;;;2.35;;
33714;SDS011;20043;50.998;4.754;2023-02-26T05:12:34;8.18;;;2.35;;
33714;SDS011;20043;50.998;4.754;2023-02-26T05:15:00;12.25;;;2.85;;
33714;SDS011;20043;50.998;4.754;2023-02-26T05:17:25;13.32;;;2.55;;
33714;SDS011;20043;50.998;4.754;2023-02-26T05:19:51;11.65;;;2.38;;
33714;SDS011;20043;50.998;4.754;2023-02-26T05:22:17;9.63;;;2.10;;
33714;SDS011;20043;50.998;4.754;2023-02-26T05:24:42;10.18;;;2.30;;
33714;SDS011;20043;50.998;4.754;2023-02-26T05:27:08;13.13;;;2.45;;
33714;SDS011;20043;50.998;4.754;2023-02-26T05:29:34;12.02;;;2.38;;
33714;SDS011;20043;50.998;4.754;2023-02-26T05:32:01;18.15;;;2.38;;
33714;SDS011;20043;50.998;4.754;2023-02-26T05:34:27;7.90;;;1.85;;
33714;SDS011;20043;50.998;4.754;2023-02-26T05:36:53;10.73;;;2.40;;
33714;SDS011;20043;50.998;4.754;2023-02-26T05:39:19;10.57;;;2.50;;
33714;SDS011;20043;50.998;4.754;2023-02-26T05:41:44;9.40;;;2.40;;
33714;SDS011;20043;50.998;4.754;2023-02-26T05:44:11;13.68;;;2.20;;
33714;SDS011;20043;50.998;4.754;2023-02-26T05:46:36;9.82;;;2.45;;
33714;SDS011;20043;50.998;4.754;2023-02-26T05:49:02;9.70;;;2.13;;
33714;SDS011;20043;50.998;4.754;2023-02-26T05:51:28;10.15;;;2.10;;
33714;SDS011;20043;50.998;4.754;2023-02-26T05:53:53;8.68;;;2.08;;
33714;SDS011;20043;50.998;4.754;2023-02-26T05:56:19;9.00;;;2.75;;
33714;SDS011;20043;50.998;4.754;2023-02-26T05:58:45;10.82;;;1.98;;
33714;SDS011;20043;50.998;4.754;2023-02-26T06:01:10;8.38;;;2.30;;
33714;SDS011;20043;50.998;4.754;2023-02-26T06:03:36;9.70;;;2.15;;
33714;SDS011;20043;50.998;4.754;2023-02-26T06:06:07;7.57;;;1.98;;
33714;SDS011;20043;50.998;4.754;2023-02-26T06:08:38;12.13;;;2.33;;
33714;SDS011;20043;50.998;4.754;2023-02-26T06:11:04;9.15;;;2.15;;
33714;SDS011;20043;50.998;4.754;2023-02-26T06:13:30;16.88;;;3.50;;
33714;SDS011;20043;50.998;4.754;2023-02-26T06:15:55;19.17;;;5.88;;
33714;SDS011;20043;50.998;4.754;2023-02-26T06:18:21;16.25;;;5.18;;
33714;SDS011;20043;50.998;4.754;2023-02-26T06:20:47;18.65;;;5.15;;
33714;SDS011;20043;50.998;4.754;2023-02-26T06:23:13;16.08;;;5.15;;
33714;SDS011;20043;50.998;4.754;2023-02-26T06:25:41;18.70;;;4.55;;
33714;SDS011;20043;50.998;4.754;2023-02-26T06:28:07;17.83;;;3.75;;
33714;SDS011;20043;50.998;4.754;2023-02-26T06:30:33;15.80;;;3.72;;
33714;SDS011;20043;50.998;4.754;2023-02-26T06:32:59;14.65;;;3.05;;
33714;SDS011;20043;50.998;4.754;2023-02-26T06:35:25;15.23;;;2.83;;
33714;SDS011;20043;50.998;4.754;2023-02-26T06:37:52;19.05;;;2.65;;
33714;SDS011;20043;50.998;4.754;2023-02-26T06:40:17;9.70;;;2.13;;
33714;SDS011;20043;50.998;4.754;2023-02-26T06:42:43;11.98;;;1.73;;
33714;SDS011;20043;50.998;4.754;2023-02-26T06:45:09;6.00;;;1.70;;
33714;SDS011;20043;50.998;4.754;2023-02-26T06:47:35;9.80;;;1.88;;
33714;SDS011;20043;50.998;4.754;2023-02-26T06:50:00;10.50;;;2.33;;
33714;SDS011;20043;50.998;4.754;2023-02-26T06:52:28;8.50;;;2.03;;
33714;SDS011;20043;50.998;4.754;2023-02-26T06:54:53;10.13;;;2.22;;
33714;SDS011;20043;50.998;4.754;2023-02-26T06:57:19;13.20;;;2.35;;
33714;SDS011;20043;50.998;4.754;2023-02-26T06:59:44;13.77;;;2.22;;
33714;SDS011;20043;50.998;4.754;2023-02-26T07:02:15;11.13;;;2.25;;
33714;SDS011;20043;50.998;4.754;2023-02-26T07:04:42;10.35;;;2.42;;
33714;SDS011;20043;50.998;4.754;2023-02-26T07:07:07;6.75;;;2.13;;
33714;SDS011;20043;50.998;4.754;2023-02-26T07:09:33;8.40;;;1.55;;
33714;SDS011;20043;50.998;4.754;2023-02-26T07:11:58;9.00;;;1.88;;
33714;SDS011;20043;50.998;4.754;2023-02-26T07:14:24;11.90;;;1.70;;
33714;SDS011;20043;50.998;4.754;2023-02-26T07:16:49;11.13;;;1.50;;
33714;SDS011;20043;50.998;4.754;2023-02-26T07:19:15;13.57;;;1.88;;
33714;SDS011;20043;50.998;4.754;2023-02-26T07:21:40;12.00;;;2.72;;
33714;SDS011;20043;50.998;4.754;2023-02-26T07:24:06;6.65;;;1.30;;
33714;SDS011;20043;50.998;4.754;2023-02-26T07:26:32;8.20;;;1.60;;
33714;SDS011;20043;50.998;4.754;2023-02-26T07:28:59;6.53;;;1.48;;
33714;SDS011;20043;50.998;4.754;2023-02-26T07:31:28;8.25;;;1.80;;
33714;SDS011;20043;50.998;4.754;2023-02-26T07:33:53;9.73;;;1.80;;
33714;SDS011;20043;50.998;4.754;2023-02-26T07:36:19;8.80;;;1.95;;
33714;SDS011;20043;50.998;4.754;2023-02-26T07:38:44;10.43;;;1.83;;
33714;SDS011;20043;50.998;4.754;2023-02-26T07:41:10;8.18;;;1.70;;
33714;SDS011;20043;50.998;4.754;2023-02-26T07:43:36;10.35;;;1.55;;
33714;SDS011;20043;50.998;4.754;2023-02-26T07:46:02;6.57;;;1.48;;
33714;SDS011;20043;50.998;4.754;2023-02-26T07:48:28;16.20;;;2.35;;
33714;SDS011;20043;50.998;4.754;2023-02-26T07:50:54;8.88;;;1.90;;
33714;SDS011;20043;50.998;4.754;2023-02-26T07:53:19;14.30;;;2.40;;
33714;SDS011;20043;50.998;4.754;2023-02-26T07:55:45;8.18;;;1.83;;
33714;SDS011;20043;50.998;4.754;2023-02-26T07:58:11;5.80;;;1.50;;
33714;SDS011;20043;50.998;4.754;2023-02-26T08:00:36;6.90;;;1.88;;
33714;SDS011;20043;50.998;4.754;2023-02-26T08:03:02;7.15;;;1.67;;
33714;SDS011;20043;50.998;4.754;2023-02-26T08:05:28;6.40;;;1.58;;
33714;SDS011;20043;50.998;4.754;2023-02-26T08:07:54;12.15;;;2.08;;
33714;SDS011;20043;50.998;4.754;2023-02-26T08:10:19;7.47;;;1.60;;
33714;SDS011;20043;50.998;4.754;2023-02-26T08:12:45;11.20;;;1.90;;
33714;SDS011;20043;50.998;4.754;2023-02-26T08:15:10;7.07;;;1.73;;
33714;SDS011;20043;50.998;4.754;2023-02-26T08:17:39;6.75;;;1.80;;
33714;SDS011;20043;50.998;4.754;2023-02-26T08:20:06;8.50;;;2.00;;
33714;SDS011;20043;50.998;4.754;2023-02-26T08:22:32;8.43;;;1.50;;
33714;SDS011;20043;50.998;4.754;2023-02-26T08:24:58;8.10;;;1.63;;
33714;SDS011;20043;50.998;4.754;2023-02-26T08:27:24;7.60;;;1.60;;
33714;SDS011;20043;50.998;4.754;2023-02-26T08:29:50;7.80;;;1.90;;
33714;SDS011;20043;50.998;4.754;2023-02-26T08:32:16;9.27;;;1.60;;
33714;SDS011;20043;50.998;4.754;2023-02-26T08:34:43;5.00;;;1.33;;
33714;SDS011;20043;50.998;4.754;2023-02-26T08:37:09;10.98;;;1.60;;
33714;SDS011;20043;50.998;4.754;2023-02-26T08:39:35;7.15;;;1.60;;
33714;SDS011;20043;50.998;4.754;2023-02-26T08:42:03;5.35;;;1.88;;
33714;SDS011;20043;50.998;4.754;2023-02-26T08:44:30;10.93;;;1.70;;
33714;SDS011;20043;50.998;4.754;2023-02-26T08:46:56;9.07;;;1.45;;
33714;SDS011;20043;50.998;4.754;2023-02-26T08:49:21;4.55;;;1.52;;
33714;SDS011;20043;50.998;4.754;2023-02-26T08:51:47;13.20;;;3.35;;
33714;SDS011;20043;50.998;4.754;2023-02-26T08:54:13;11.82;;;3.20;;
33714;SDS011;20043;50.998;4.754;2023-02-26T08:56:39;8.57;;;2.10;;
33714;SDS011;20043;50.998;4.754;2023-02-26T08:59:04;6.47;;;1.73;;
33714;SDS011;20043;50.998;4.754;2023-02-26T09:01:30;7.88;;;1.40;;
33714;SDS011;20043;50.998;4.754;2023-02-26T09:03:55;5.35;;;1.42;;
33714;SDS011;20043;50.998;4.754;2023-02-26T09:06:21;9.30;;;1.38;;
33714;SDS011;20043;50.998;4.754;2023-02-26T09:08:47;8.30;;;1.33;;
33714;SDS011;20043;50.998;4.754;2023-02-26T09:11:13;5.88;;;1.30;;
33714;SDS011;20043;50.998;4.754;2023-02-26T09:13:39;8.27;;;1.98;;
33714;SDS011;20043;50.998;4.754;2023-02-26T09:16:05;6.40;;;2.17;;
33714;SDS011;20043;50.998;4.754;2023-02-26T09:18:31;10.57;;;1.90;;
33714;SDS011;20043;50.998;4.754;2023-02-26T09:20:57;4.93;;;1.20;;
33714;SDS011;20043;50.998;4.754;2023-02-26T09:23:22;10.48;;;1.58;;
33714;SDS011;20043;50.998;4.754;2023-02-26T09:25:54;6.15;;;1.42;;
33714;SDS011;20043;50.998;4.754;2023-02-26T09:28:21;11.50;;;2.00;;
33714;SDS011;20043;50.998;4.754;2023-02-26T09:30:51;5.40;;;1.58;;
33714;SDS011;20043;50.998;4.754;2023-02-26T09:33:20;8.77;;;1.63;;
33714;SDS011;20043;50.998;4.754;2023-02-26T09:35:47;6.70;;;1.60;;
33714;SDS011;20043;50.998;4.754;2023-02-26T09:38:13;7.32;;;1.42;;
33714;SDS011;20043;50.998;4.754;2023-02-26T09:48:56;7.47;;;1.45;;
33714;SDS011;20043;50.998;4.754;2023-02-26T09:51:31;6.35;;;1.30;;
33714;SDS011;20043;50.998;4.754;2023-02-26T09:53:59;5.13;;;1.20;;
33714;SDS011;20043;50.998;4.754;2023-02-26T09:56:34;4.20;;;1.10;;
33714;SDS011;20043;50.998;4.754;2023-02-26T09:59:00;5.55;;;1.60;;
33714;SDS011;20043;50.998;4.754;2023-02-26T10:01:33;7.70;;;1.40;;
33714;SDS011;20043;50.998;4.754;2023-02-26T10:04:13;6.93;;;1.40;;
33714;SDS011;20043;50.998;4.754;2023-02-26T10:12:25;4.20;;;1.10;;
33714;SDS011;20043;50.998;4.754;2023-02-26T10:20:57;4.90;;;1.30;;
33714;SDS011;20043;50.998;4.754;2023-02-26T10:23:42;2.85;;;1.00;;
33714;SDS011;20043;50.998;4.754;2023-02-26T10:42:08;5.53;;;1.30;;
33714;SDS011;20043;50.998;4.754;2023-02-26T10:50:27;4.78;;;1.00;;
33714;SDS011;20043;50.998;4.754;2023-02-26T10:52:54;6.28;;;1.50;;
33714;SDS011;20043;50.998;4.754;2023-02-26T11:00:41;2.38;;;0.93;;
33714;SDS011;20043;50.998;4.754;2023-02-26T11:03:12;3.40;;;0.90;;
33714;SDS011;20043;50.998;4.754;2023-02-26T11:05:43;3.25;;;0.80;;
33714;SDS011;20043;50.998;4.754;2023-02-26T11:08:10;4.25;;;1.17;;
33714;SDS011;20043;50.998;4.754;2023-02-26T11:10:52;3.90;;;1.30;;
33714;SDS011;20043;50.998;4.754;2023-02-26T11:13:24;4.85;;;0.70;;
33714;SDS011;20043;50.998;4.754;2023-02-26T11:15:51;3.42;;;1.30;;
33714;SDS011;20043;50.998;4.754;2023-02-26T11:18:29;5.85;;;1.23;;
33714;SDS011;20043;50.998;4.754;2023-02-26T11:21:20;3.60;;;1.05;;
33714;SDS011;20043;50.998;4.754;2023-02-26T11:23:57;6.70;;;1.20;;
33714;SDS011;20043;50.998;4.754;2023-02-26T11:26:34;2.17;;;1.10;;
33714;SDS011;20043;50.998;4.754;2023-02-26T11:29:02;5.93;;;1.30;;
33714;SDS011;20043;50.998;4.754;2023-02-26T11:31:28;2.05;;;0.70;;
33714;SDS011;20043;50.998;4.754;2023-02-26T11:33:59;6.25;;;1.25;;
33714;SDS011;20043;50.998;4.754;2023-02-26T11:36:28;5.43;;;1.65;;
33714;SDS011;20043;50.998;4.754;2023-02-26T11:38:56;5.03;;;1.20;;
33714;SDS011;20043;50.998;4.754;2023-02-26T11:41:34;3.33;;;1.10;;
33714;SDS011;20043;50.998;4.754;2023-02-26T11:44:06;5.50;;;1.40;;
33714;SDS011;20043;50.998;4.754;2023-02-26T11:46:40;6.07;;;1.13;;
33714;SDS011;20043;50.998;4.754;2023-02-26T11:49:14;4.28;;;1.00;;
33714;SDS011;20043;50.998;4.754;2023-02-26T11:51:42;4.85;;;0.80;;
33714;SDS011;20043;50.998;4.754;2023-02-26T11:54:23;4.75;;;0.98;;
33714;SDS011;20043;50.998;4.754;2023-02-26T11:56:52;4.40;;;0.90;;
33714;SDS011;20043;50.998;4.754;2023-02-26T11:59:30;7.32;;;1.23;;
33714;SDS011;20043;50.998;4.754;2023-02-26T12:02:00;1.80;;;0.80;;
33714;SDS011;20043;50.998;4.754;2023-02-26T12:04:37;5.72;;;1.40;;
33714;SDS011;20043;50.998;4.754;2023-02-26T12:07:10;2.00;;;0.95;;
33714;SDS011;20043;50.998;4.754;2023-02-26T12:09:38;3.35;;;0.90;;
33714;SDS011;20043;50.998;4.754;2023-02-26T12:22:33;7.43;;;1.02;;
33714;SDS011;20043;50.998;4.754;2023-02-26T12:36:03;4.93;;;0.85;;
33714;SDS011;20043;50.998;4.754;2023-02-26T12:49:53;7.47;;;1.40;;
33714;SDS011;20043;50.998;4.754;2023-02-26T12:58:26;2.88;;;0.90;;
33714;SDS011;20043;50.998;4.754;2023-02-26T13:11:59;4.60;;;1.00;;
33714;SDS011;20043;50.998;4.754;2023-02-26T13:17:46;3.72;;;1.10;;
33714;SDS011;20043;50.998;4.754;2023-02-26T13:20:26;2.92;;;0.70;;
33714;SDS011;20043;50.998;4.754;2023-02-26T13:23:00;3.13;;;0.90;;
33714;SDS011;20043;50.998;4.754;2023-02-26T13:25:40;4.68;;;1.38;;
33714;SDS011;20043;50.998;4.754;2023-02-26T13:33:58;3.22;;;0.95;;
33714;SDS011;20043;50.998;4.754;2023-02-26T13:36:30;3.72;;;0.98;;
33714;SDS011;20043;50.998;4.754;2023-02-26T13:38:59;5.30;;;1.05;;
33714;SDS011;20043;50.998;4.754;2023-02-26T13:52:29;2.42;;;0.65;;
33714;SDS011;20043;50.998;4.754;2023-02-26T13:54:56;7.22;;;1.10;;
33714;SDS011;20043;50.998;4.754;2023-02-26T14:00:21;3.25;;;0.80;;
33714;SDS011;20043;50.998;4.754;2023-02-26T14:02:54;2.67;;;0.80;;
33714;SDS011;20043;50.998;4.754;2023-02-26T14:05:50;2.95;;;1.13;;
33714;SDS011;20043;50.998;4.754;2023-02-26T14:08:24;3.13;;;0.90;;
33714;SDS011;20043;50.998;4.754;2023-02-26T14:10:53;2.20;;;0.70;;
33714;SDS011;20043;50.998;4.754;2023-02-26T14:23:49;1.20;;;0.77;;
33714;SDS011;20043;50.998;4.754;2023-02-26T14:26:21;1.95;;;0.82;;
33714;SDS011;20043;50.998;4.754;2023-02-26T14:34:14;2.28;;;0.90;;
33714;SDS011;20043;50.998;4.754;2023-02-26T14:36:48;1.55;;;0.77;;
33714;SDS011;20043;50.998;4.754;2023-02-26T14:39:22;4.85;;;1.38;;
33714;SDS011;20043;50.998;4.754;2023-02-26T14:41:51;3.33;;;0.75;;
33714;SDS011;20043;50.998;4.754;2023-02-26T14:44:23;3.67;;;0.80;;
33714;SDS011;20043;50.998;4.754;2023-02-26T14:46:52;2.35;;;0.90;;
33714;SDS011;20043;50.998;4.754;2023-02-26T14:49:37;4.05;;;1.48;;
33714;SDS011;20043;50.998;4.754;2023-02-26T15:00:32;3.75;;;1.00;;
33714;SDS011;20043;50.998;4.754;2023-02-26T15:06:10;4.15;;;0.93;;
33714;SDS011;20043;50.998;4.754;2023-02-26T15:11:36;2.97;;;0.80;;
33714;SDS011;20043;50.998;4.754;2023-02-26T15:14:10;4.18;;;1.05;;
33714;SDS011;20043;50.998;4.754;2023-02-26T15:24:54;3.13;;;1.05;;
33714;SDS011;20043;50.998;4.754;2023-02-26T15:27:20;4.70;;;1.00;;
33714;SDS011;20043;50.998;4.754;2023-02-26T15:29:46;2.63;;;0.70;;
33714;SDS011;20043;50.998;4.754;2023-02-26T15:32:23;3.58;;;0.75;;
33714;SDS011;20043;50.998;4.754;2023-02-26T15:34:59;4.80;;;1.30;;
33714;SDS011;20043;50.998;4.754;2023-02-26T15:37:28;4.03;;;1.08;;
33714;SDS011;20043;50.998;4.754;2023-02-26T15:39:59;2.92;;;1.00;;
33714;SDS011;20043;50.998;4.754;2023-02-26T15:42:29;2.40;;;1.10;;
33714;SDS011;20043;50.998;4.754;2023-02-26T15:44:58;4.07;;;1.00;;
33714;SDS011;20043;50.998;4.754;2023-02-26T15:47:26;7.15;;;0.95;;
33714;SDS011;20043;50.998;4.754;2023-02-26T15:49:54;2.80;;;1.08;;
33714;SDS011;20043;50.998;4.754;2023-02-26T15:52:21;4.10;;;1.20;;
33714;SDS011;20043;50.998;4.754;2023-02-26T15:54:58;4.63;;;1.00;;
33714;SDS011;20043;50.998;4.754;2023-02-26T15:57:28;4.57;;;1.00;;
33714;SDS011;20043;50.998;4.754;2023-02-26T16:00:05;4.05;;;1.17;;
33714;SDS011;20043;50.998;4.754;2023-02-26T16:02:34;2.10;;;0.93;;
33714;SDS011;20043;50.998;4.754;2023-02-26T16:05:01;4.18;;;0.90;;
33714;SDS011;20043;50.998;4.754;2023-02-26T16:07:27;4.65;;;1.15;;
33714;SDS011;20043;50.998;4.754;2023-02-26T16:09:54;6.00;;;1.05;;
33714;SDS011;20043;50.998;4.754;2023-02-26T16:12:22;6.97;;;1.15;;
33714;SDS011;20043;50.998;4.754;2023-02-26T16:14:59;3.63;;;1.23;;
33714;SDS011;20043;50.998;4.754;2023-02-26T16:17:30;2.03;;;0.90;;
33714;SDS011;20043;50.998;4.754;2023-02-26T16:20:04;3.60;;;1.13;;
33714;SDS011;20043;50.998;4.754;2023-02-26T16:22:37;5.40;;;1.20;;
33714;SDS011;20043;50.998;4.754;2023-02-26T16:27:57;7.60;;;1.08;;
33714;SDS011;20043;50.998;4.754;2023-02-26T16:30:29;5.95;;;1.48;;
33714;SDS011;20043;50.998;4.754;2023-02-26T16:32:57;9.15;;;1.20;;
33714;SDS011;20043;50.998;4.754;2023-02-26T16:35:26;5.00;;;1.00;;
33714;SDS011;20043;50.998;4.754;2023-02-26T16:37:58;3.28;;;1.00;;
33714;SDS011;20043;50.998;4.754;2023-02-26T16:40:26;3.42;;;1.15;;
33714;SDS011;20043;50.998;4.754;2023-02-26T16:43:01;2.50;;;1.00;;
33714;SDS011;20043;50.998;4.754;2023-02-26T16:48:05;4.60;;;1.25;;
33714;SDS011;20043;50.998;4.754;2023-02-26T16:50:37;4.03;;;1.38;;
33714;SDS011;20043;50.998;4.754;2023-02-26T16:53:06;2.25;;;1.00;;
33714;SDS011;20043;50.998;4.754;2023-02-26T16:55:38;4.43;;;1.02;;
33714;SDS011;20043;50.998;4.754;2023-02-26T16:58:06;3.25;;;1.17;;
33714;SDS011;20043;50.998;4.754;2023-02-26T17:00:36;2.40;;;0.95;;
33714;SDS011;20043;50.998;4.754;2023-02-26T17:03:10;4.07;;;1.30;;
33714;SDS011;20043;50.998;4.754;2023-02-26T17:05:41;4.07;;;1.10;;
33714;SDS011;20043;50.998;4.754;2023-02-26T17:08:18;5.03;;;1.10;;
33714;SDS011;20043;50.998;4.754;2023-02-26T17:10:52;7.78;;;1.30;;
33714;SDS011;20043;50.998;4.754;2023-02-26T17:13:26;5.43;;;1.20;;
33714;SDS011;20043;50.998;4.754;2023-02-26T17:15:56;4.13;;;1.27;;
33714;SDS011;20043;50.998;4.754;2023-02-26T17:18:23;4.30;;;1.25;;
33714;SDS011;20043;50.998;4.754;2023-02-26T17:20:49;3.55;;;1.20;;
33714;SDS011;20043;50.998;4.754;2023-02-26T17:23:15;4.63;;;1.60;;
33714;SDS011;20043;50.998;4.754;2023-02-26T17:25:46;3.40;;;1.75;;
33714;SDS011;20043;50.998;4.754;2023-02-26T17:28:20;3.58;;;1.35;;
33714;SDS011;20043;50.998;4.754;2023-02-26T17:30:47;4.65;;;1.92;;
33714;SDS011;20043;50.998;4.754;2023-02-26T17:33:13;3.47;;;1.35;;
33714;SDS011;20043;50.998;4.754;2023-02-26T17:35:39;5.60;;;1.52;;
33714;SDS011;20043;50.998;4.754;2023-02-26T17:38:05;4.32;;;1.88;;
33714;SDS011;20043;50.998;4.754;2023-02-26T17:40:34;3.60;;;1.35;;
33714;SDS011;20043;50.998;4.754;2023-02-26T17:43:01;4.65;;;1.52;;
33714;SDS011;20043;50.998;4.754;2023-02-26T17:45:28;3.78;;;1.65;;
33714;SDS011;20043;50.998;4.754;2023-02-26T17:47:54;5.63;;;1.85;;
33714;SDS011;20043;50.998;4.754;2023-02-26T17:53:00;2.72;;;1.40;;
33714;SDS011;20043;50.998;4.754;2023-02-26T17:55:29;5.45;;;1.80;;
33714;SDS011;20043;50.998;4.754;2023-02-26T17:57:55;4.40;;;1.60;;
33714;SDS011;20043;50.998;4.754;2023-02-26T18:00:21;4.45;;;1.90;;
33714;SDS011;20043;50.998;4.754;2023-02-26T18:02:47;3.80;;;1.60;;
33714;SDS011;20043;50.998;4.754;2023-02-26T18:05:15;2.85;;;1.40;;
33714;SDS011;20043;50.998;4.754;2023-02-26T18:07:41;6.38;;;2.28;;
33714;SDS011;20043;50.998;4.754;2023-02-26T18:10:09;5.82;;;2.30;;
33714;SDS011;20043;50.998;4.754;2023-02-26T18:12:40;4.03;;;2.13;;
33714;SDS011;20043;50.998;4.754;2023-02-26T18:15:06;5.03;;;2.03;;
33714;SDS011;20043;50.998;4.754;2023-02-26T18:17:34;6.45;;;2.22;;
33714;SDS011;20043;50.998;4.754;2023-02-26T18:20:00;4.80;;;1.98;;
33714;SDS011;20043;50.998;4.754;2023-02-26T18:22:25;10.75;;;2.30;;
33714;SDS011;20043;50.998;4.754;2023-02-26T18:24:52;6.05;;;2.58;;
33714;SDS011;20043;50.998;4.754;2023-02-26T18:27:19;6.57;;;2.40;;
33714;SDS011;20043;50.998;4.754;2023-02-26T18:29:47;4.45;;;2.22;;
33714;SDS011;20043;50.998;4.754;2023-02-26T18:32:13;4.00;;;1.90;;
33714;SDS011;20043;50.998;4.754;2023-02-26T18:34:43;3.85;;;2.08;;
33714;SDS011;20043;50.998;4.754;2023-02-26T18:37:11;5.40;;;2.30;;
33714;SDS011;20043;50.998;4.754;2023-02-26T18:39:38;8.00;;;2.30;;
33714;SDS011;20043;50.998;4.754;2023-02-26T18:42:04;4.72;;;1.90;;